Terminal Aerodrome Forecast
Issued by NWS Greer, SC

Home | Current Version | Previous Version | Text Only | Print | Product List | Glossary On
Versions: 1 2 3 4 5 6 7 8 9 10 11 12 13 14 15 16 17 18 19 20 21 22 23 24 25 26
000
FTUS42 KGSP 272320
TAFAVL
TAF
KAVL 272320Z 2800/2824 15003KT P6SM SCT070
     FM280300 VRB03KT P6SM BKN060
     FM280900 00000KT 6SM BR SCT002 BKN024
     FM281300 14003KT P6SM BKN060
     FM281700 14005KT P6SM SCT050=

USA.gov is the U.S. government's official web portal to all federal, state and local government web resources and services.